sensor_id;sensor_type;location;lat;lon;timestamp;temperature;humidity
38860;DHT22;24609;48.316;16.174;2023-11-19T00:00:25;1.30;1.00
38860;DHT22;24609;48.316;16.174;2023-11-19T00:02:51;1.40;1.00
38860;DHT22;24609;48.316;16.174;2023-11-19T00:05:17;1.50;1.00
38860;DHT22;24609;48.316;16.174;2023-11-19T00:07:43;1.50;1.00
38860;DHT22;24609;48.316;16.174;2023-11-19T00:10:13;1.50;1.00
38860;DHT22;24609;48.316;16.174;2023-11-19T00:12:43;1.60;1.00
38860;DHT22;24609;48.316;16.174;2023-11-19T00:15:13;1.50;1.00
38860;DHT22;24609;48.316;16.174;2023-11-19T00:17:42;1.60;1.00
38860;DHT22;24609;48.316;16.174;2023-11-19T00:20:20;1.60;1.00
38860;DHT22;24609;48.316;16.174;2023-11-19T00:22:47;1.60;1.00
38860;DHT22;24609;48.316;16.174;2023-11-19T00:25:20;1.70;1.00
38860;DHT22;24609;48.316;16.174;2023-11-19T00:27:47;1.70;1.00
38860;DHT22;24609;48.316;16.174;2023-11-19T00:30:13;1.70;1.00
38860;DHT22;24609;48.316;16.174;2023-11-19T00:32:40;1.70;1.00
38860;DHT22;24609;48.316;16.174;2023-11-19T00:35:06;1.60;1.00
38860;DHT22;24609;48.316;16.174;2023-11-19T00:37:36;1.60;1.00
38860;DHT22;24609;48.316;16.174;2023-11-19T00:40:01;1.60;1.00
38860;DHT22;24609;48.316;16.174;2023-11-19T00:42:30;1.70;1.00
38860;DHT22;24609;48.316;16.174;2023-11-19T00:44:56;1.70;1.00
38860;DHT22;24609;48.316;16.174;2023-11-19T00:47:22;1.70;1.00
38860;DHT22;24609;48.316;16.174;2023-11-19T00:49:48;1.80;1.00
38860;DHT22;24609;48.316;16.174;2023-11-19T00:52:17;1.90;1.00
38860;DHT22;24609;48.316;16.174;2023-11-19T00:54:43;1.90;1.00
38860;DHT22;24609;48.316;16.174;2023-11-19T00:57:09;1.90;1.00
38860;DHT22;24609;48.316;16.174;2023-11-19T00:59:35;1.90;1.00
38860;DHT22;24609;48.316;16.174;2023-11-19T01:02:00;2.00;1.00
38860;DHT22;24609;48.316;16.174;2023-11-19T01:04:38;1.90;1.00
38860;DHT22;24609;48.316;16.174;2023-11-19T01:07:04;1.80;1.00
38860;DHT22;24609;48.316;16.174;2023-11-19T01:09:32;1.80;1.00
38860;DHT22;24609;48.316;16.174;2023-11-19T01:11:58;1.80;1.00
38860;DHT22;24609;48.316;16.174;2023-11-19T01:14:26;1.70;1.00
38860;DHT22;24609;48.316;16.174;2023-11-19T01:16:52;1.80;1.00
38860;DHT22;24609;48.316;16.174;2023-11-19T01:19:20;1.90;1.00
38860;DHT22;24609;48.316;16.174;2023-11-19T01:21:46;1.90;1.00
38860;DHT22;24609;48.316;16.174;2023-11-19T01:24:12;1.90;1.00
38860;DHT22;24609;48.316;16.174;2023-11-19T01:26:39;1.90;1.00
38860;DHT22;24609;48.316;16.174;2023-11-19T01:29:11;1.80;1.00
38860;DHT22;24609;48.316;16.174;2023-11-19T01:31:42;1.70;1.00
38860;DHT22;24609;48.316;16.174;2023-11-19T01:34:08;1.80;32.60
38860;DHT22;24609;48.316;16.174;2023-11-19T01:36:34;1.80;63.10
38860;DHT22;24609;48.316;16.174;2023-11-19T01:39:00;1.80;48.40
38860;DHT22;24609;48.316;16.174;2023-11-19T01:41:26;1.90;57.80
38860;DHT22;24609;48.316;16.174;2023-11-19T01:43:52;1.90;25.10
38860;DHT22;24609;48.316;16.174;2023-11-19T01:46:17;1.90;22.10
38860;DHT22;24609;48.316;16.174;2023-11-19T01:48:45;2.00;1.00
38860;DHT22;24609;48.316;16.174;2023-11-19T01:51:14;2.00;1.00
38860;DHT22;24609;48.316;16.174;2023-11-19T01:53:42;2.10;1.00
38860;DHT22;24609;48.316;16.174;2023-11-19T01:56:09;2.10;1.00
38860;DHT22;24609;48.316;16.174;2023-11-19T01:58:37;2.00;1.00
38860;DHT22;24609;48.316;16.174;2023-11-19T02:01:07;2.00;1.00
38860;DHT22;24609;48.316;16.174;2023-11-19T02:03:33;2.00;1.00
38860;DHT22;24609;48.316;16.174;2023-11-19T02:06:00;2.00;1.00
38860;DHT22;24609;48.316;16.174;2023-11-19T02:08:26;1.90;1.00
38860;DHT22;24609;48.316;16.174;2023-11-19T02:10:52;1.90;1.00
38860;DHT22;24609;48.316;16.174;2023-11-19T02:13:20;1.80;1.00
38860;DHT22;24609;48.316;16.174;2023-11-19T02:15:46;1.90;1.00
38860;DHT22;24609;48.316;16.174;2023-11-19T02:18:23;1.80;28.90
38860;DHT22;24609;48.316;16.174;2023-11-19T02:20:50;1.80;69.10
38860;DHT22;24609;48.316;16.174;2023-11-19T02:23:16;1.80;99.90
38860;DHT22;24609;48.316;16.174;2023-11-19T02:25:44;1.70;99.90
38860;DHT22;24609;48.316;16.174;2023-11-19T02:28:12;1.70;99.90
38860;DHT22;24609;48.316;16.174;2023-11-19T02:30:38;1.70;99.90
38860;DHT22;24609;48.316;16.174;2023-11-19T02:33:04;1.70;99.90
38860;DHT22;24609;48.316;16.174;2023-11-19T02:35:32;1.60;99.90
38860;DHT22;24609;48.316;16.174;2023-11-19T02:37:59;1.50;99.90
38860;DHT22;24609;48.316;16.174;2023-11-19T02:40:26;1.50;99.90
38860;DHT22;24609;48.316;16.174;2023-11-19T02:42:54;1.50;99.90
38860;DHT22;24609;48.316;16.174;2023-11-19T02:45:24;1.40;99.90
38860;DHT22;24609;48.316;16.174;2023-11-19T02:47:53;1.50;99.90
38860;DHT22;24609;48.316;16.174;2023-11-19T02:50:20;1.50;99.90
38860;DHT22;24609;48.316;16.174;2023-11-19T02:52:53;1.50;99.90
38860;DHT22;24609;48.316;16.174;2023-11-19T02:55:20;1.50;99.90
38860;DHT22;24609;48.316;16.174;2023-11-19T02:57:46;1.50;99.90
38860;DHT22;24609;48.316;16.174;2023-11-19T03:00:21;1.60;99.90
38860;DHT22;24609;48.316;16.174;2023-11-19T03:02:56;1.60;99.90
38860;DHT22;24609;48.316;16.174;2023-11-19T03:05:30;1.70;99.90
38860;DHT22;24609;48.316;16.174;2023-11-19T03:07:56;1.70;99.90
38860;DHT22;24609;48.316;16.174;2023-11-19T03:10:23;1.80;99.90
38860;DHT22;24609;48.316;16.174;2023-11-19T03:12:49;1.80;99.90
38860;DHT22;24609;48.316;16.174;2023-11-19T03:15:15;1.80;99.90
38860;DHT22;24609;48.316;16.174;2023-11-19T03:17:44;1.90;99.90
38860;DHT22;24609;48.316;16.174;2023-11-19T03:20:11;1.90;99.90
38860;DHT22;24609;48.316;16.174;2023-11-19T03:22:43;2.00;99.90
38860;DHT22;24609;48.316;16.174;2023-11-19T03:25:10;2.00;99.90
38860;DHT22;24609;48.316;16.174;2023-11-19T03:27:36;2.00;99.90
38860;DHT22;24609;48.316;16.174;2023-11-19T03:30:11;2.10;99.90
38860;DHT22;24609;48.316;16.174;2023-11-19T03:32:37;2.20;99.90
38860;DHT22;24609;48.316;16.174;2023-11-19T03:35:05;2.20;99.90
38860;DHT22;24609;48.316;16.174;2023-11-19T03:37:32;2.20;99.90
38860;DHT22;24609;48.316;16.174;2023-11-19T03:39:58;2.30;99.90
38860;DHT22;24609;48.316;16.174;2023-11-19T03:42:26;2.30;99.90
38860;DHT22;24609;48.316;16.174;2023-11-19T03:44:53;2.30;99.90
38860;DHT22;24609;48.316;16.174;2023-11-19T03:47:19;2.40;99.90
38860;DHT22;24609;48.316;16.174;2023-11-19T03:49:51;2.50;99.90
38860;DHT22;24609;48.316;16.174;2023-11-19T03:52:18;2.50;99.90
38860;DHT22;24609;48.316;16.174;2023-11-19T03:54:44;2.50;99.90
38860;DHT22;24609;48.316;16.174;2023-11-19T03:57:11;2.60;99.90
38860;DHT22;24609;48.316;16.174;2023-11-19T03:59:37;2.60;99.90
38860;DHT22;24609;48.316;16.174;2023-11-19T04:02:03;2.60;99.90
38860;DHT22;24609;48.316;16.174;2023-11-19T04:04:29;2.60;99.90
38860;DHT22;24609;48.316;16.174;2023-11-19T04:06:55;2.70;99.90
38860;DHT22;24609;48.316;16.174;2023-11-19T04:09:21;2.70;99.90
38860;DHT22;24609;48.316;16.174;2023-11-19T04:11:47;2.70;99.90
38860;DHT22;24609;48.316;16.174;2023-11-19T04:14:13;2.60;99.90
38860;DHT22;24609;48.316;16.174;2023-11-19T04:16:40;2.70;99.90
38860;DHT22;24609;48.316;16.174;2023-11-19T04:19:06;2.60;99.90
38860;DHT22;24609;48.316;16.174;2023-11-19T04:21:32;2.70;99.90
38860;DHT22;24609;48.316;16.174;2023-11-19T04:23:58;2.70;99.90
38860;DHT22;24609;48.316;16.174;2023-11-19T04:26:24;2.70;99.90
38860;DHT22;24609;48.316;16.174;2023-11-19T04:28:49;2.80;99.90
38860;DHT22;24609;48.316;16.174;2023-11-19T04:31:15;2.80;99.90
38860;DHT22;24609;48.316;16.174;2023-11-19T04:33:44;2.80;99.90
38860;DHT22;24609;48.316;16.174;2023-11-19T04:36:10;2.80;99.90
38860;DHT22;24609;48.316;16.174;2023-11-19T04:38:37;2.80;99.90
38860;DHT22;24609;48.316;16.174;2023-11-19T04:41:04;2.80;99.90
38860;DHT22;24609;48.316;16.174;2023-11-19T04:43:31;2.80;99.90
38860;DHT22;24609;48.316;16.174;2023-11-19T04:45:57;2.80;99.90
38860;DHT22;24609;48.316;16.174;2023-11-19T04:48:23;2.80;99.90
38860;DHT22;24609;48.316;16.174;2023-11-19T04:50:49;2.80;99.90
38860;DHT22;24609;48.316;16.174;2023-11-19T04:53:16;2.70;99.90
38860;DHT22;24609;48.316;16.174;2023-11-19T04:55:42;2.80;99.90
38860;DHT22;24609;48.316;16.174;2023-11-19T04:58:08;2.80;99.90
38860;DHT22;24609;48.316;16.174;2023-11-19T05:00:34;2.80;99.90
38860;DHT22;24609;48.316;16.174;2023-11-19T05:03:00;2.80;99.90
38860;DHT22;24609;48.316;16.174;2023-11-19T05:05:25;2.80;99.90
38860;DHT22;24609;48.316;16.174;2023-11-19T05:07:51;2.80;99.90
38860;DHT22;24609;48.316;16.174;2023-11-19T05:10:17;2.80;99.90
38860;DHT22;24609;48.316;16.174;2023-11-19T05:12:42;2.90;99.90
38860;DHT22;24609;48.316;16.174;2023-11-19T05:15:08;2.90;99.90
38860;DHT22;24609;48.316;16.174;2023-11-19T05:17:34;2.90;99.90
38860;DHT22;24609;48.316;16.174;2023-11-19T05:20:00;2.90;99.90
38860;DHT22;24609;48.316;16.174;2023-11-19T05:22:26;2.90;99.90
38860;DHT22;24609;48.316;16.174;2023-11-19T05:24:52;2.90;99.90
38860;DHT22;24609;48.316;16.174;2023-11-19T05:27:17;2.90;99.90
38860;DHT22;24609;48.316;16.174;2023-11-19T05:29:43;2.90;99.90
38860;DHT22;24609;48.316;16.174;2023-11-19T05:32:09;3.00;99.90
38860;DHT22;24609;48.316;16.174;2023-11-19T05:34:35;3.00;99.90
38860;DHT22;24609;48.316;16.174;2023-11-19T05:37:01;3.00;99.90
38860;DHT22;24609;48.316;16.174;2023-11-19T05:39:28;3.00;99.90
38860;DHT22;24609;48.316;16.174;2023-11-19T05:41:53;3.00;99.90
38860;DHT22;24609;48.316;16.174;2023-11-19T05:44:19;3.10;99.90
38860;DHT22;24609;48.316;16.174;2023-11-19T05:46:45;3.10;99.90
38860;DHT22;24609;48.316;16.174;2023-11-19T05:49:11;3.10;99.90
38860;DHT22;24609;48.316;16.174;2023-11-19T05:51:38;3.10;99.90
38860;DHT22;24609;48.316;16.174;2023-11-19T05:54:05;3.10;99.90
38860;DHT22;24609;48.316;16.174;2023-11-19T05:56:32;3.20;99.90
38860;DHT22;24609;48.316;16.174;2023-11-19T05:58:58;3.30;99.90
38860;DHT22;24609;48.316;16.174;2023-11-19T06:01:26;3.30;99.90
38860;DHT22;24609;48.316;16.174;2023-11-19T06:03:52;3.40;99.90
38860;DHT22;24609;48.316;16.174;2023-11-19T06:06:18;3.40;99.90
38860;DHT22;24609;48.316;16.174;2023-11-19T06:08:44;3.40;99.90
38860;DHT22;24609;48.316;16.174;2023-11-19T06:11:10;3.40;99.90
38860;DHT22;24609;48.316;16.174;2023-11-19T06:13:44;3.40;99.90
38860;DHT22;24609;48.316;16.174;2023-11-19T06:16:09;3.40;99.90
38860;DHT22;24609;48.316;16.174;2023-11-19T06:18:36;3.40;99.90
38860;DHT22;24609;48.316;16.174;2023-11-19T06:21:02;3.50;99.90
38860;DHT22;24609;48.316;16.174;2023-11-19T06:23:28;3.50;99.90
38860;DHT22;24609;48.316;16.174;2023-11-19T06:25:53;3.50;99.90
38860;DHT22;24609;48.316;16.174;2023-11-19T06:28:19;3.50;99.90
38860;DHT22;24609;48.316;16.174;2023-11-19T06:30:45;3.40;99.90
38860;DHT22;24609;48.316;16.174;2023-11-19T06:33:14;3.40;99.90
38860;DHT22;24609;48.316;16.174;2023-11-19T06:35:40;3.50;99.90
38860;DHT22;24609;48.316;16.174;2023-11-19T06:38:05;3.50;99.90
38860;DHT22;24609;48.316;16.174;2023-11-19T06:40:34;3.50;99.90
38860;DHT22;24609;48.316;16.174;2023-11-19T06:43:01;3.50;99.90
38860;DHT22;24609;48.316;16.174;2023-11-19T06:45:28;3.50;99.90
38860;DHT22;24609;48.316;16.174;2023-11-19T06:47:54;3.50;99.90
38860;DHT22;24609;48.316;16.174;2023-11-19T06:50:19;3.70;99.90
38860;DHT22;24609;48.316;16.174;2023-11-19T06:52:45;3.80;99.90
38860;DHT22;24609;48.316;16.174;2023-11-19T06:55:11;3.90;99.90
38860;DHT22;24609;48.316;16.174;2023-11-19T06:57:37;3.90;99.90
38860;DHT22;24609;48.316;16.174;2023-11-19T07:00:04;3.90;99.90
38860;DHT22;24609;48.316;16.174;2023-11-19T07:02:31;3.90;99.90
38860;DHT22;24609;48.316;16.174;2023-11-19T07:04:57;3.90;99.90
38860;DHT22;24609;48.316;16.174;2023-11-19T07:07:22;3.90;99.90
38860;DHT22;24609;48.316;16.174;2023-11-19T07:09:48;3.90;99.90
38860;DHT22;24609;48.316;16.174;2023-11-19T07:12:14;3.80;99.90
38860;DHT22;24609;48.316;16.174;2023-11-19T07:14:40;3.90;99.90
38860;DHT22;24609;48.316;16.174;2023-11-19T07:17:07;3.90;99.90
38860;DHT22;24609;48.316;16.174;2023-11-19T07:19:34;3.90;99.90
38860;DHT22;24609;48.316;16.174;2023-11-19T07:22:02;3.80;99.90
38860;DHT22;24609;48.316;16.174;2023-11-19T07:24:27;3.70;99.90
38860;DHT22;24609;48.316;16.174;2023-11-19T07:26:54;3.70;99.90
38860;DHT22;24609;48.316;16.174;2023-11-19T07:29:19;3.80;99.90
38860;DHT22;24609;48.316;16.174;2023-11-19T07:31:48;3.80;99.90
38860;DHT22;24609;48.316;16.174;2023-11-19T07:34:14;3.90;99.90
38860;DHT22;24609;48.316;16.174;2023-11-19T07:36:40;3.80;99.90
38860;DHT22;24609;48.316;16.174;2023-11-19T07:39:06;3.90;99.90
38860;DHT22;24609;48.316;16.174;2023-11-19T07:41:32;3.90;99.90
38860;DHT22;24609;48.316;16.174;2023-11-19T07:43:58;4.00;99.90
38860;DHT22;24609;48.316;16.174;2023-11-19T07:46:24;4.00;99.90
38860;DHT22;24609;48.316;16.174;2023-11-19T07:48:50;4.10;99.90
38860;DHT22;24609;48.316;16.174;2023-11-19T07:51:16;4.10;99.90
38860;DHT22;24609;48.316;16.174;2023-11-19T07:53:42;3.90;99.90
38860;DHT22;24609;48.316;16.174;2023-11-19T07:56:08;4.10;99.90
38860;DHT22;24609;48.316;16.174;2023-11-19T07:58:34;4.30;99.90
38860;DHT22;24609;48.316;16.174;2023-11-19T08:01:00;4.30;99.90
38860;DHT22;24609;48.316;16.174;2023-11-19T08:03:27;4.40;99.90
38860;DHT22;24609;48.316;16.174;2023-11-19T08:05:55;4.60;99.90
38860;DHT22;24609;48.316;16.174;2023-11-19T08:08:22;4.80;99.90
38860;DHT22;24609;48.316;16.174;2023-11-19T08:10:47;5.10;99.90
38860;DHT22;24609;48.316;16.174;2023-11-19T08:13:14;5.60;99.90
38860;DHT22;24609;48.316;16.174;2023-11-19T08:15:39;5.80;1.00
38860;DHT22;24609;48.316;16.174;2023-11-19T08:18:06;5.80;1.00
38860;DHT22;24609;48.316;16.174;2023-11-19T08:20:33;5.50;99.90
38860;DHT22;24609;48.316;16.174;2023-11-19T08:22:59;5.70;1.00
38860;DHT22;24609;48.316;16.174;2023-11-19T08:25:24;5.80;1.00
38860;DHT22;24609;48.316;16.174;2023-11-19T08:27:50;5.60;99.90
38860;DHT22;24609;48.316;16.174;2023-11-19T08:30:16;6.00;1.00
38860;DHT22;24609;48.316;16.174;2023-11-19T08:32:41;6.30;99.90
38860;DHT22;24609;48.316;16.174;2023-11-19T08:35:07;6.30;99.90
38860;DHT22;24609;48.316;16.174;2023-11-19T08:37:33;5.90;99.90
38860;DHT22;24609;48.316;16.174;2023-11-19T08:40:02;6.10;99.90
38860;DHT22;24609;48.316;16.174;2023-11-19T08:42:28;6.30;99.90
38860;DHT22;24609;48.316;16.174;2023-11-19T08:44:55;6.30;99.90
38860;DHT22;24609;48.316;16.174;2023-11-19T08:47:20;6.30;99.90
38860;DHT22;24609;48.316;16.174;2023-11-19T08:49:50;6.30;99.90
38860;DHT22;24609;48.316;16.174;2023-11-19T08:52:17;6.30;99.90
38860;DHT22;24609;48.316;16.174;2023-11-19T08:54:43;6.40;99.90
38860;DHT22;24609;48.316;16.174;2023-11-19T08:57:09;6.30;99.90
38860;DHT22;24609;48.316;16.174;2023-11-19T08:59:35;6.70;99.90
38860;DHT22;24609;48.316;16.174;2023-11-19T09:02:03;7.00;1.00
38860;DHT22;24609;48.316;16.174;2023-11-19T09:04:29;7.30;1.00
38860;DHT22;24609;48.316;16.174;2023-11-19T09:06:57;8.10;99.90
38860;DHT22;24609;48.316;16.174;2023-11-19T09:09:22;8.60;1.00
38860;DHT22;24609;48.316;16.174;2023-11-19T09:11:48;8.70;99.90
38860;DHT22;24609;48.316;16.174;2023-11-19T09:14:13;9.00;99.90
38860;DHT22;24609;48.316;16.174;2023-11-19T09:16:39;9.00;99.90
38860;DHT22;24609;48.316;16.174;2023-11-19T09:19:05;8.60;99.90
38860;DHT22;24609;48.316;16.174;2023-11-19T09:21:37;8.20;99.90
38860;DHT22;24609;48.316;16.174;2023-11-19T09:24:05;8.30;99.90
38860;DHT22;24609;48.316;16.174;2023-11-19T09:26:30;8.50;1.00
38860;DHT22;24609;48.316;16.174;2023-11-19T09:28:56;8.60;1.00
38860;DHT22;24609;48.316;16.174;2023-11-19T09:31:22;8.60;1.00
38860;DHT22;24609;48.316;16.174;2023-11-19T09:33:47;8.30;99.90
38860;DHT22;24609;48.316;16.174;2023-11-19T09:36:13;8.10;99.90
38860;DHT22;24609;48.316;16.174;2023-11-19T09:38:48;7.90;1.00
38860;DHT22;24609;48.316;16.174;2023-11-19T09:41:14;7.90;1.00
38860;DHT22;24609;48.316;16.174;2023-11-19T09:43:40;7.80;1.00
38860;DHT22;24609;48.316;16.174;2023-11-19T09:46:09;7.80;1.00
38860;DHT22;24609;48.316;16.174;2023-11-19T09:48:37;8.20;1.00
38860;DHT22;24609;48.316;16.174;2023-11-19T09:51:07;8.40;99.90
38860;DHT22;24609;48.316;16.174;2023-11-19T09:53:34;8.80;99.90
38860;DHT22;24609;48.316;16.174;2023-11-19T09:56:02;9.00;99.90
38860;DHT22;24609;48.316;16.174;2023-11-19T09:58:29;9.20;99.90
38860;DHT22;24609;48.316;16.174;2023-11-19T10:00:56;8.90;99.90
38860;DHT22;24609;48.316;16.174;2023-11-19T10:03:26;9.20;99.90
38860;DHT22;24609;48.316;16.174;2023-11-19T10:05:56;8.80;99.90
38860;DHT22;24609;48.316;16.174;2023-11-19T10:08:22;8.50;99.90
38860;DHT22;24609;48.316;16.174;2023-11-19T10:10:48;8.40;1.00
38860;DHT22;24609;48.316;16.174;2023-11-19T10:13:14;8.30;99.90
38860;DHT22;24609;48.316;16.174;2023-11-19T10:15:40;8.50;1.00
38860;DHT22;24609;48.316;16.174;2023-11-19T10:18:07;9.40;1.00
38860;DHT22;24609;48.316;16.174;2023-11-19T10:20:42;9.60;93.80
38860;DHT22;24609;48.316;16.174;2023-11-19T10:23:08;9.40;99.90
38860;DHT22;24609;48.316;16.174;2023-11-19T10:25:34;9.00;99.90
38860;DHT22;24609;48.316;16.174;2023-11-19T10:28:00;8.60;1.00
38860;DHT22;24609;48.316;16.174;2023-11-19T10:30:27;8.60;99.90
38860;DHT22;24609;48.316;16.174;2023-11-19T10:33:04;8.60;99.90
38860;DHT22;24609;48.316;16.174;2023-11-19T10:35:32;8.60;2.90
38860;DHT22;24609;48.316;16.174;2023-11-19T10:38:13;8.30;99.90
38860;DHT22;24609;48.316;16.174;2023-11-19T10:40:39;8.20;99.90
38860;DHT22;24609;48.316;16.174;2023-11-19T10:43:05;8.00;99.90
38860;DHT22;24609;48.316;16.174;2023-11-19T10:45:33;7.90;99.90
38860;DHT22;24609;48.316;16.174;2023-11-19T10:47:59;7.90;99.90
38860;DHT22;24609;48.316;16.174;2023-11-19T10:50:28;7.80;99.90
38860;DHT22;24609;48.316;16.174;2023-11-19T10:52:56;7.60;99.90
38860;DHT22;24609;48.316;16.174;2023-11-19T10:55:32;7.70;1.00
38860;DHT22;24609;48.316;16.174;2023-11-19T10:58:05;7.60;1.00
38860;DHT22;24609;48.316;16.174;2023-11-19T11:03:11;7.50;1.00
38860;DHT22;24609;48.316;16.174;2023-11-19T11:05:40;7.80;1.00
38860;DHT22;24609;48.316;16.174;2023-11-19T11:08:07;8.00;1.00
38860;DHT22;24609;48.316;16.174;2023-11-19T11:10:37;8.00;99.90
38860;DHT22;24609;48.316;16.174;2023-11-19T11:13:05;8.30;99.90
38860;DHT22;24609;48.316;16.174;2023-11-19T11:15:31;8.60;99.90
38860;DHT22;24609;48.316;16.174;2023-11-19T11:18:00;8.80;99.90
38860;DHT22;24609;48.316;16.174;2023-11-19T11:20:31;8.70;99.90
38860;DHT22;24609;48.316;16.174;2023-11-19T11:34:36;8.90;1.00
38860;DHT22;24609;48.316;16.174;2023-11-19T11:39:34;9.30;1.00
38860;DHT22;24609;48.316;16.174;2023-11-19T11:55:37;9.90;99.90
38860;DHT22;24609;48.316;16.174;2023-11-19T11:58:20;10.10;99.90
38860;DHT22;24609;48.316;16.174;2023-11-19T12:00:48;9.90;99.90
38860;DHT22;24609;48.316;16.174;2023-11-19T12:03:14;9.90;99.90
38860;DHT22;24609;48.316;16.174;2023-11-19T12:05:44;9.90;99.90
38860;DHT22;24609;48.316;16.174;2023-11-19T12:08:11;10.00;99.90
38860;DHT22;24609;48.316;16.174;2023-11-19T12:10:49;10.40;99.90
38860;DHT22;24609;48.316;16.174;2023-11-19T12:13:16;10.50;99.90
38860;DHT22;24609;48.316;16.174;2023-11-19T12:18:25;10.20;99.90
38860;DHT22;24609;48.316;16.174;2023-11-19T12:20:51;10.00;99.90
38860;DHT22;24609;48.316;16.174;2023-11-19T12:23:17;9.80;99.90
38860;DHT22;24609;48.316;16.174;2023-11-19T12:25:43;9.70;99.90
38860;DHT22;24609;48.316;16.174;2023-11-19T12:28:14;9.60;1.00
38860;DHT22;24609;48.316;16.174;2023-11-19T12:30:40;9.40;1.00
38860;DHT22;24609;48.316;16.174;2023-11-19T12:33:09;9.40;1.00
38860;DHT22;24609;48.316;16.174;2023-11-19T12:35:43;9.30;1.00
38860;DHT22;24609;48.316;16.174;2023-11-19T12:38:18;9.10;1.00
38860;DHT22;24609;48.316;16.174;2023-11-19T12:40:45;9.10;1.00
38860;DHT22;24609;48.316;16.174;2023-11-19T12:43:11;9.10;1.00
38860;DHT22;24609;48.316;16.174;2023-11-19T12:45:46;9.10;1.00
38860;DHT22;24609;48.316;16.174;2023-11-19T12:48:11;9.00;1.00
38860;DHT22;24609;48.316;16.174;2023-11-19T12:50:54;9.00;9.70
38860;DHT22;24609;48.316;16.174;2023-11-19T12:53:22;8.80;1.00
38860;DHT22;24609;48.316;16.174;2023-11-19T12:55:48;8.80;99.90
38860;DHT22;24609;48.316;16.174;2023-11-19T12:58:33;8.80;99.90
38860;DHT22;24609;48.316;16.174;2023-11-19T13:01:03;8.90;99.90
38860;DHT22;24609;48.316;16.174;2023-11-19T13:03:35;8.90;99.90
38860;DHT22;24609;48.316;16.174;2023-11-19T13:06:09;9.30;99.90
38860;DHT22;24609;48.316;16.174;2023-11-19T13:08:41;9.80;52.50
38860;DHT22;24609;48.316;16.174;2023-11-19T13:11:08;10.10;1.00
38860;DHT22;24609;48.316;16.174;2023-11-19T13:13:54;10.30;1.00
38860;DHT22;24609;48.316;16.174;2023-11-19T13:16:19;10.50;1.00
38860;DHT22;24609;48.316;16.174;2023-11-19T13:18:45;10.90;1.00
38860;DHT22;24609;48.316;16.174;2023-11-19T13:21:11;11.00;99.90
38860;DHT22;24609;48.316;16.174;2023-11-19T13:23:36;10.90;99.90
38860;DHT22;24609;48.316;16.174;2023-11-19T13:26:02;10.50;1.00
38860;DHT22;24609;48.316;16.174;2023-11-19T13:28:29;10.10;1.00
38860;DHT22;24609;48.316;16.174;2023-11-19T13:30:55;9.90;1.00
38860;DHT22;24609;48.316;16.174;2023-11-19T13:33:20;9.80;25.70
38860;DHT22;24609;48.316;16.174;2023-11-19T13:35:46;9.80;91.30
38860;DHT22;24609;48.316;16.174;2023-11-19T13:38:12;9.70;99.90
38860;DHT22;24609;48.316;16.174;2023-11-19T13:40:38;9.70;99.90
38860;DHT22;24609;48.316;16.174;2023-11-19T13:43:04;9.70;99.90
38860;DHT22;24609;48.316;16.174;2023-11-19T13:45:30;9.70;99.90
38860;DHT22;24609;48.316;16.174;2023-11-19T13:47:55;9.70;99.90
38860;DHT22;24609;48.316;16.174;2023-11-19T13:50:21;9.70;99.90
38860;DHT22;24609;48.316;16.174;2023-11-19T13:52:48;9.80;99.90
38860;DHT22;24609;48.316;16.174;2023-11-19T13:55:14;9.80;99.90
38860;DHT22;24609;48.316;16.174;2023-11-19T13:57:41;9.80;99.90
38860;DHT22;24609;48.316;16.174;2023-11-19T14:00:11;9.70;99.90
38860;DHT22;24609;48.316;16.174;2023-11-19T14:02:46;9.70;99.90
38860;DHT22;24609;48.316;16.174;2023-11-19T14:05:13;9.70;99.90
38860;DHT22;24609;48.316;16.174;2023-11-19T14:07:39;9.60;99.90
38860;DHT22;24609;48.316;16.174;2023-11-19T14:10:06;9.60;99.90
38860;DHT22;24609;48.316;16.174;2023-11-19T14:12:32;9.60;99.90
38860;DHT22;24609;48.316;16.174;2023-11-19T14:14:59;9.70;99.90
38860;DHT22;24609;48.316;16.174;2023-11-19T14:17:25;9.70;99.90
38860;DHT22;24609;48.316;16.174;2023-11-19T14:19:51;9.80;99.90
38860;DHT22;24609;48.316;16.174;2023-11-19T14:22:17;9.80;99.90
38860;DHT22;24609;48.316;16.174;2023-11-19T14:24:43;9.80;99.90
38860;DHT22;24609;48.316;16.174;2023-11-19T14:27:11;9.80;99.90
38860;DHT22;24609;48.316;16.174;2023-11-19T14:29:37;9.80;99.90
38860;DHT22;24609;48.316;16.174;2023-11-19T14:32:03;9.80;99.90
38860;DHT22;24609;48.316;16.174;2023-11-19T14:34:30;9.80;99.90
38860;DHT22;24609;48.316;16.174;2023-11-19T14:36:56;9.90;99.90
38860;DHT22;24609;48.316;16.174;2023-11-19T14:39:22;9.90;99.90
38860;DHT22;24609;48.316;16.174;2023-11-19T14:41:48;9.90;99.90
38860;DHT22;24609;48.316;16.174;2023-11-19T14:44:15;9.90;99.90
38860;DHT22;24609;48.316;16.174;2023-11-19T14:46:40;9.90;99.90
38860;DHT22;24609;48.316;16.174;2023-11-19T14:49:06;9.80;99.90
38860;DHT22;24609;48.316;16.174;2023-11-19T14:51:36;9.80;99.90
38860;DHT22;24609;48.316;16.174;2023-11-19T14:54:02;9.80;99.90
38860;DHT22;24609;48.316;16.174;2023-11-19T14:56:28;9.70;99.90
38860;DHT22;24609;48.316;16.174;2023-11-19T14:58:54;9.70;99.90
38860;DHT22;24609;48.316;16.174;2023-11-19T15:01:19;9.70;99.90
38860;DHT22;24609;48.316;16.174;2023-11-19T15:03:45;9.60;99.90
38860;DHT22;24609;48.316;16.174;2023-11-19T15:06:11;9.60;99.90
38860;DHT22;24609;48.316;16.174;2023-11-19T15:08:37;9.70;99.90
38860;DHT22;24609;48.316;16.174;2023-11-19T15:11:03;9.70;99.90
38860;DHT22;24609;48.316;16.174;2023-11-19T15:13:30;9.70;99.90
38860;DHT22;24609;48.316;16.174;2023-11-19T15:15:56;9.80;99.90
38860;DHT22;24609;48.316;16.174;2023-11-19T15:18:22;9.80;99.90
38860;DHT22;24609;48.316;16.174;2023-11-19T15:20:48;9.70;99.90
38860;DHT22;24609;48.316;16.174;2023-11-19T15:23:14;9.50;99.90
38860;DHT22;24609;48.316;16.174;2023-11-19T15:25:41;9.30;99.90
38860;DHT22;24609;48.316;16.174;2023-11-19T15:28:06;9.10;99.90
38860;DHT22;24609;48.316;16.174;2023-11-19T15:30:32;9.10;99.90
38860;DHT22;24609;48.316;16.174;2023-11-19T15:32:58;9.00;99.90
38860;DHT22;24609;48.316;16.174;2023-11-19T15:35:24;9.00;99.90
38860;DHT22;24609;48.316;16.174;2023-11-19T15:37:49;9.10;99.90
38860;DHT22;24609;48.316;16.174;2023-11-19T15:40:15;9.10;99.90
38860;DHT22;24609;48.316;16.174;2023-11-19T15:42:41;9.10;99.90
38860;DHT22;24609;48.316;16.174;2023-11-19T15:45:08;9.10;99.90
38860;DHT22;24609;48.316;16.174;2023-11-19T15:47:34;9.10;99.90
38860;DHT22;24609;48.316;16.174;2023-11-19T15:50:04;9.10;99.90
38860;DHT22;24609;48.316;16.174;2023-11-19T15:52:31;9.10;99.90
38860;DHT22;24609;48.316;16.174;2023-11-19T15:54:57;9.10;99.90
38860;DHT22;24609;48.316;16.174;2023-11-19T15:57:23;8.90;99.90
38860;DHT22;24609;48.316;16.174;2023-11-19T15:59:48;8.80;99.90
38860;DHT22;24609;48.316;16.174;2023-11-19T16:02:15;8.70;99.90
38860;DHT22;24609;48.316;16.174;2023-11-19T16:04:41;8.50;99.90
38860;DHT22;24609;48.316;16.174;2023-11-19T16:07:06;8.20;99.90